Latest Weather Observations for Warra

IDT60801

Issued at 11:35 pm EST Wednesday 23 July 2014 (issued every 30 minutes, with the page automatically refreshed every 10 minutes)

About weather observations | Map of weather stations | Latest weather observations for TAS | Other Formats
Station Details ID: 097024 Name: WARRA Lat: -43.06 Lon: 146.70 Height: 495.0 m
Data from the previous 72 hours. | See also: Recent months at Warra
Date/Time
EST
Temp
°C
App
Temp
°C
Dew
Point
Rel
Hum
%
Delta-T
°C
Wind Press
QNH
hPa
Press
MSL
hPa
Rain
since 9 am
mm
Dir
 
Spd
km/h
Gust
km/h
Spd
kts
Gust
kts
23/11:30pm 2.1 0.4 2.1 100 0.0 N 0 0 0 0 - - 0.0
23/11:00pm 2.1 0.4 2.1 100 0.0 W 0 0 0 0 - - 0.0
23/10:30pm 2.1 -0.7 2.1 100 0.0 W 6 9 3 5 - - 0.0
23/10:00pm 2.2 0.6 2.2 100 0.0 CALM 0 6 0 3 - - 0.0
23/09:30pm 2.7 -0.2 2.7 100 0.0 NW 7 9 4 5 - - 0.0
23/09:00pm 2.0 0.3 2.0 100 0.0 CALM 0 9 0 5 - - 0.0
23/08:30pm 2.3 0.7 2.3 100 0.0 CALM 0 0 0 0 - - 0.0
23/08:00pm 2.1 -0.7 2.1 100 0.0 WSW 6 9 3 5 - - 0.0
23/07:30pm 2.2 0.5 2.1 99 0.0 CALM 0 0 0 0 - - 0.0
23/07:00pm 2.9 1.0 2.8 99 0.0 W 2 6 1 3 - - 0.0
23/06:30pm 2.6 -0.2 2.2 97 0.2 W 6 7 3 4 - - 0.0
23/06:00pm 3.6 1.0 3.0 96 0.3 WNW 6 9 3 5 - - 0.0
23/05:30pm 4.7 3.3 3.4 91 0.6 CALM 0 0 0 0 - - 0.0
23/05:00pm 5.6 4.3 3.9 89 0.7 CALM 0 0 0 0 - - 0.0
23/04:30pm 7.6 6.5 4.9 83 1.2 CALM 0 0 0 0 - - 0.0
23/04:00pm 9.0 7.7 4.2 72 2.2 CALM 0 0 0 0 - - 0.0
23/03:30pm 8.9 7.6 4.3 73 2.1 CALM 0 0 0 0 - - 0.0
23/03:00pm 9.0 7.1 4.8 75 1.9 N 4 7 2 4 - - 0.0
23/02:30pm 10.3 7.8 4.9 69 2.5 SW 7 11 4 6 - - 0.0
23/02:00pm 10.2 7.7 5.0 70 2.4 SSE 7 11 4 6 - - 0.0
23/01:30pm 9.9 7.0 4.9 71 2.3 SE 9 15 5 8 - - 0.0
23/01:00pm 10.2 7.7 5.0 70 2.4 E 7 11 4 6 - - 0.0
23/12:30pm 9.3 6.5 5.1 75 1.9 ESE 9 11 5 6 - - 0.0
23/12:00pm 9.4 7.3 5.6 77 1.8 ESE 6 11 3 6 - - 0.0
23/11:30am 9.8 7.3 5.0 72 2.2 NNE 7 11 4 6 - - 0.0
23/11:00am 8.5 6.4 5.6 82 1.3 ESE 6 11 3 6 - - 0.0
23/10:30am 8.4 6.7 5.9 84 1.2 ESE 4 9 2 5 - - 0.0
23/10:00am 7.9 5.8 6.0 88 0.9 ESE 6 9 3 5 - - 0.0
23/09:30am 7.1 6.3 6.5 96 0.3 CALM 0 0 0 0 - - 0.0
23/09:00am 5.9 3.8 5.9 100 0.0 SE 6 7 3 4 - - 0.2
23/08:30am 5.3 3.9 5.3 100 0.0 ESE 2 7 1 4 - - 0.2
23/08:00am 3.3 0.5 3.3 100 0.0 WSW 7 9 4 5 - - 0.2
23/07:30am 4.3 1.7 4.3 100 0.0 WNW 7 9 4 5 - - 0.2
23/07:00am 4.1 1.1 4.1 100 0.0 NW 9 9 5 5 - - 0.2
23/06:30am 4.2 1.2 4.2 100 0.0 W 9 11 5 6 - - 0.2
23/06:00am 4.1 1.1 4.1 100 0.0 W 9 13 5 7 - - 0.2
23/05:30am 3.8 0.7 3.8 100 0.0 WSW 9 11 5 6 - - 0.2
23/05:00am 3.7 1.6 3.7 100 0.0 W 4 9 2 5 - - 0.2
23/04:30am 4.6 2.3 4.6 100 0.0 SSW 6 7 3 4 - - 0.2
23/04:00am 4.3 2.7 4.3 100 0.0 WSW 2 6 1 3 - - 0.2
23/03:30am 4.3 1.7 4.3 100 0.0 WSW 7 9 4 5 - - 0.2
23/03:00am 4.1 1.1 4.1 100 0.0 W 9 13 5 7 - - 0.2
23/02:30am 3.6 1.4 3.6 100 0.0 W 4 9 2 5 - - 0.2
23/02:00am 5.0 3.1 5.0 100 0.0 NW 4 7 2 4 - - 0.2
23/01:30am 4.4 1.8 4.4 100 0.0 WSW 7 9 4 5 - - 0.2
23/01:00am 4.9 3.0 4.9 100 0.0 SW 4 9 2 5 - - 0.2
23/12:30am 5.3 4.2 5.3 100 0.0 CALM 0 0 0 0 - - 0.2
23/12:00am 5.2 3.0 5.2 100 0.0 WSW 6 9 3 5 - - 0.2
 
Date/Time
EST
Temp
°C
App
Temp
°C
Dew
Point
Rel
Hum
%
Delta-T
°C
Wind Press
QNH
hPa
Press
MSL
hPa
Rain
since 9 am
mm
Dir
 
Spd
km/h
Gust
km/h
Spd
kts
Gust
kts
22/11:30pm 5.2 3.0 5.2 100 0.0 W 6 7 3 4 - - 0.2
22/11:00pm 5.1 2.7 5.1 100 0.0 WSW 7 7 4 4 - - 0.2
22/10:30pm 5.1 3.6 5.1 100 0.0 WSW 2 7 1 4 - - 0.2
22/10:00pm 4.8 3.6 4.8 100 0.0 CALM 0 0 0 0 - - 0.2
22/09:30pm 4.8 3.3 4.8 100 0.0 WSW 2 6 1 3 - - 0.2
22/09:00pm 5.2 3.0 5.2 100 0.0 SW 6 7 3 4 - - 0.2
22/08:30pm 5.1 2.8 5.0 99 0.0 SSW 6 7 3 4 - - 0.2
22/08:00pm 4.8 2.5 4.7 99 0.0 NW 6 9 3 5 - - 0.2
22/07:30pm 5.5 4.4 5.1 97 0.2 CALM 0 0 0 0 - - 0.2
22/07:00pm 5.9 4.0 5.0 94 0.4 SSE 4 6 2 3 - - 0.2
22/06:30pm 6.2 4.7 5.0 92 0.5 N 2 7 1 4 - - 0.2
22/06:00pm 6.1 3.6 4.7 91 0.6 WSW 7 9 4 5 - - 0.2
22/05:30pm 6.4 3.9 4.7 89 0.8 WNW 7 13 4 7 - - 0.2
22/05:00pm 6.3 3.4 4.5 88 0.8 NW 9 13 5 7 - - 0.2
22/04:30pm 7.0 4.5 4.7 85 1.0 NW 7 13 4 7 - - 0.2
22/04:00pm 7.8 5.3 4.7 81 1.4 NW 7 11 4 6 - - 0.2
22/03:30pm 8.1 5.8 5.0 81 1.4 N 6 7 3 4 - - 0.2
22/03:00pm 8.0 6.3 5.8 86 1.0 NNW 4 7 2 4 - - 0.2
22/02:30pm 7.6 5.4 5.1 84 1.1 N 6 11 3 6 - - 0.2
22/02:00pm 7.7 4.9 5.0 83 1.2 W 9 20 5 11 - - 0.2
22/01:30pm 6.8 5.2 4.3 84 1.1 SE 2 7 1 4 - - 0.2
22/01:00pm 8.2 5.7 4.6 78 1.6 NE 7 11 4 6 - - 0.2
22/12:30pm 7.5 5.6 4.8 83 1.2 SE 4 7 2 4 - - 0.2
22/12:00pm 7.7 5.8 4.8 82 1.3 E 4 7 2 4 - - 0.2
22/11:30am 6.7 4.3 4.4 85 1.0 SSW 6 7 3 4 - - 0.2
22/11:00am 6.5 5.0 5.1 91 0.6 SSE 2 9 1 5 - - 0.2
22/10:30am 5.5 4.3 4.8 95 0.3 CALM 0 0 0 0 - - 0.2
22/10:00am 5.6 4.6 5.5 99 0.0 CALM 0 0 0 0 - - 0.2
22/09:30am 5.7 4.7 5.7 100 0.0 CALM 0 0 0 0 - - 0.2
22/09:00am 4.8 3.6 4.8 100 0.0 CALM 0 0 0 0 - - 0.0
22/08:30am 3.8 1.1 3.8 100 0.0 W 7 9 4 5 - - 0.0
22/08:00am 2.0 -1.0 2.0 100 0.0 WSW 7 9 4 5 - - 0.0
22/07:30am 2.1 -1.3 2.1 100 0.0 W 9 13 5 7 - - 0.0
22/07:00am 1.4 -2.1 1.4 100 0.0 W 9 11 5 6 - - 0.0
22/06:30am 1.2 -1.9 1.2 100 0.0 W 7 11 4 6 - - 0.0
22/06:00am 0.8 -2.4 0.8 100 0.0 W 7 9 4 5 - - 0.0
22/05:30am 0.6 -2.6 0.6 100 0.0 WSW 7 11 4 6 - - 0.0
22/05:00am 1.2 -1.9 1.2 100 0.0 W 7 11 4 6 - - 0.0
22/04:30am 1.6 -1.8 1.6 100 0.0 W 9 13 5 7 - - 0.0
22/04:00am 1.2 -1.7 1.2 100 0.0 WSW 6 9 3 5 - - 0.0
22/03:30am 0.3 -2.4 0.3 100 0.0 SSW 4 9 2 5 - - 0.0
22/03:00am 1.5 -0.3 1.5 100 0.0 CALM 0 0 0 0 - - 0.0
22/02:30am 1.1 -0.7 1.1 100 0.0 CALM 0 0 0 0 - - 0.0
22/02:00am 0.9 -0.9 0.9 100 0.0 CALM 0 0 0 0 - - 0.0
22/01:30am 1.2 -1.7 1.2 100 0.0 SW 6 9 3 5 - - 0.0
22/01:00am 0.5 -2.7 0.5 100 0.0 W 7 9 4 5 - - 0.0
22/12:30am 0.3 -2.4 0.3 100 0.0 W 4 9 2 5 - - 0.0
22/12:00am 0.8 -1.4 0.8 100 0.0 WSW 2 6 1 3 - - 0.0
 
Date/Time
EST
Temp
°C
App
Temp
°C
Dew
Point
Rel
Hum
%
Delta-T
°C
Wind Press
QNH
hPa
Press
MSL
hPa
Rain
since 9 am
mm
Dir
 
Spd
km/h
Gust
km/h
Spd
kts
Gust
kts
21/11:30pm 2.0 -0.8 2.0 100 0.0 WSW 6 7 3 4 - - 0.0
21/11:00pm 1.3 -1.6 1.3 100 0.0 W 6 7 3 4 - - 0.0
21/10:30pm 1.0 -1.6 1.0 100 0.0 W 4 11 2 6 - - 0.0
21/10:00pm 1.4 -1.7 1.4 100 0.0 W 7 9 4 5 - - 0.0
21/09:30pm 2.3 -0.7 2.3 100 0.0 NNW 7 7 4 4 - - 0.0
21/09:00pm 2.2 -0.6 2.2 100 0.0 NW 6 7 3 4 - - 0.0
21/08:30pm 1.8 -1.0 1.8 100 0.0 NW 6 7 3 4 - - 0.0
21/08:00pm 1.7 0.0 1.7 100 0.0 CALM 0 0 0 0 - - 0.0
21/07:30pm 1.8 0.1 1.8 100 0.0 CALM 0 0 0 0 - - 0.0
21/07:00pm 2.1 0.4 2.1 100 0.0 CALM 0 0 0 0 - - 0.0
21/06:30pm 2.5 0.9 2.4 99 0.0 CALM 0 0 0 0 - - 0.0
21/06:00pm 2.8 0.8 2.5 98 0.1 E 2 6 1 3 - - 0.0
21/05:30pm 2.6 0.8 1.3 91 0.5 CALM 0 0 0 0 - - 0.0
21/05:00pm 4.5 2.3 3.2 91 0.6 WNW 4 7 2 4 - - 0.0
21/04:30pm 5.5 2.7 3.2 85 1.0 W 7 9 4 5 - - 0.0
21/04:00pm 6.9 5.5 3.7 80 1.4 CALM 0 6 0 3 - - 0.0
21/03:30pm 6.9 5.6 4.2 83 1.2 CALM 0 0 0 0 - - 0.0
21/03:00pm 7.4 4.9 3.8 78 1.6 ESE 6 7 3 4 - - 0.0
21/02:30pm 7.3 5.2 4.1 80 1.4 NE 4 6 2 3 - - 0.0
21/02:00pm 7.4 6.2 4.4 81 1.3 CALM 0 0 0 0 - - 0.0
21/01:30pm 7.7 5.2 4.7 81 1.4 NNE 7 9 4 5 - - 0.0
21/01:00pm 7.5 5.1 4.1 79 1.5 NE 6 7 3 4 - - 0.0
21/12:30pm 7.3 4.9 4.3 81 1.3 NE 6 9 3 5 - - 0.0
21/12:00pm 6.4 4.1 4.7 89 0.8 NE 6 9 3 5 - - 0.0
21/11:30am 5.4 2.9 3.7 89 0.7 NNE 6 7 3 4 - - 0.0
21/11:00am 4.6 2.8 3.7 94 0.4 N 2 6 1 3 - - 0.0
21/10:30am 4.8 3.6 4.4 97 0.2 CALM 0 0 0 0 - - 0.0
21/10:00am 4.9 2.6 4.9 100 0.0 N 6 7 3 4 - - 0.0
21/09:30am 4.7 3.5 4.7 100 0.0 CALM 0 0 0 0 - - 0.0
21/09:00am 3.5 2.1 3.5 100 0.0 CALM 0 0 0 0 - - -
21/08:30am 2.2 0.6 2.2 100 0.0 CALM 0 0 0 0 - - -
21/08:00am 0.9 -2.1 0.9 100 0.0 W 6 6 3 3 - - -
21/07:30am 0.7 -1.9 0.7 100 0.0 W 4 7 2 4 - - -
21/07:00am 1.0 -2.2 1.0 100 0.0 NW 7 7 4 4 - - -
21/06:30am 0.2 -2.9 0.2 100 0.0 NW 6 7 3 4 - - -
21/06:00am -0.2 -3.4 -0.2 100 0.0 WSW 6 7 3 4 - - -
21/05:30am 0.3 -2.4 0.3 100 0.0 W 4 9 2 5 - - -
21/05:00am 0.6 -1.3 0.6 100 0.0 CALM 0 0 0 0 - - -
21/04:30am 0.5 -1.4 0.5 100 0.0 CALM 0 0 0 0 - - -
21/04:00am 0.5 -2.5 0.5 100 0.0 W 6 7 3 4 - - -
21/03:30am 0.1 -2.2 0.1 100 0.0 W 2 6 1 3 - - -
21/03:00am 0.1 -1.9 0.1 100 0.0 CALM 0 0 0 0 - - 0.0
21/02:30am 0.6 -1.3 0.6 100 0.0 CALM 0 0 0 0 - - -
21/02:00am 1.0 -0.8 1.0 100 0.0 CALM 0 0 0 0 - - -
21/01:30am 1.8 -0.3 1.8 100 0.0 WSW 2 7 1 4 - - -
21/01:00am 1.1 -1.9 1.1 100 0.0 WSW 6 9 3 5 - - -
21/12:30am 1.8 -1.2 1.8 100 0.0 NNW 7 9 4 5 - - -
21/12:00am 1.4 -2.1 1.3 99 0.0 W 9 11 5 6 - - -

Other Formats:

Comma delimited format used in spreadsheet applications
http://www.bom.gov.au/fwo/IDT60801/IDT60801.95962.axf

JavaScript Object Notation format (JSON) in row-major order
http://www.bom.gov.au/fwo/IDT60801/IDT60801.95962.json